Hlavní strana
METAR-TAF:

METAR-TAF

Letiště :

Porto Alegre, Rio Grande do Sul, Brazílie

zeměpisná šířka: 30-00S, zeměpisná délka: 051-11W, výška: 3 m

Aktuální stav počasí

Zpráva byla vytvořena před 58 minutami, v 06:00 UTC
Východojihovýchodní vítr 6 kt
Teplota 23°C
Vlhkost vzduchu 83%
Tlak 1014 hPa
Viditelnost 10 km a více
Žádná oblačnost pod 1500 m, nevyskytují se cumulonimby.

METAR: SBPA 130600Z 12006KT CAVOK 23/20 Q1014

Čas: 04:58 (06:58 UTC)

Předpověď počasí

Zpráva byla vytvořena před 4 hodinami a 58 minutami, v 02:00 UTC
Předpověď platná od 13 v 06 UTC do 14 v 06 UTC
Východojihovýchodní vítr 8 kt
Viditelnost 10 km a více
Žádná oblačnost pod 1500 m, nevyskytují se cumulonimby.
Změna
od 13 v 13 UTC do 13 v 15 UTC
Viditelnost 10 km a více
Skoro jasno ve výšce 4000 ft
Změna
od 13 v 20 UTC do 13 v 22 UTC
Viditelnost 10 km a více
Žádná oblačnost pod 1500 m, nevyskytují se cumulonimby.

TAF: SBPA 130200Z 1306/1406 11008KT CAVOK TN23/1308Z TX32/1317Z BECMG 1313/1315 9999 FEW040 BECMG 1320/1322 CAVOK RMK PER

Stav a předpovědi počasí z více než 4 000 letišť (zprávy METAR a TAF).

Červené a žluté tečky na mapě představují dostupné meteorologické stanice.

Když kurzor umístíte na tečku, zobrazí se název stanice.

Pak kliknutím zobrazíte stav a předpověď počasí.

Chcete-li změnit mapu, kliknutím na zelené tlačítko se znaménkem +mapu přiblížíte, kliknutím na zelené tlačítko se znaménkem – mapu oddálíte a kliknutím na zelené šipky přejdete na sousední mapy.


METAR-TAF: